createdAt,value
2023-04-15T00:00:23.980Z,237.62
2023-04-15T00:01:24.015Z,237.17
2023-04-15T00:02:24.092Z,237.81
2023-04-15T00:03:24.112Z,237.82
2023-04-15T00:04:24.051Z,237.38
2023-04-15T00:05:23.938Z,237.08
2023-04-15T00:06:23.929Z,236.38
2023-04-15T00:07:23.926Z,237.03
2023-04-15T00:08:23.995Z,235.95
2023-04-15T00:09:24.057Z,236.49
2023-04-15T00:10:24.100Z,235.57
2023-04-15T00:11:24.136Z,235.54
2023-04-15T00:12:24.203Z,235.51
2023-04-15T00:13:24.253Z,236.17
2023-04-15T00:14:24.302Z,236.60
2023-04-15T00:15:24.350Z,236.49
2023-04-15T00:16:24.433Z,236.20
2023-04-15T00:17:24.461Z,234.82
2023-04-15T00:18:24.517Z,235.21
2023-04-15T00:19:24.556Z,235.35
2023-04-15T00:20:24.609Z,235.71
2023-04-15T00:21:24.644Z,235.15
2023-04-15T00:22:24.703Z,235.71
2023-04-15T00:23:24.776Z,237.10
2023-04-15T00:24:24.803Z,235.26
2023-04-15T00:25:24.858Z,234.03
2023-04-15T00:26:24.904Z,236.14
2023-04-15T00:27:24.954Z,235.65
2023-04-15T00:28:25.018Z,234.27
2023-04-15T00:29:25.050Z,235.66
2023-04-15T00:30:25.111Z,235.81
2023-04-15T00:31:25.222Z,235.54
2023-04-15T00:32:25.251Z,235.27
2023-04-15T00:33:25.265Z,235.40
2023-04-15T00:34:25.328Z,235.24
2023-04-15T00:35:25.377Z,233.67
2023-04-15T00:36:25.423Z,235.75
2023-04-15T00:37:25.468Z,234.99
2023-04-15T00:38:25.548Z,234.43
2023-04-15T00:39:25.574Z,236.97
2023-04-15T00:40:25.648Z,235.09
2023-04-15T00:41:25.691Z,234.04
2023-04-15T00:42:25.748Z,234.11
2023-04-15T00:43:25.807Z,235.56
2023-04-15T00:44:25.858Z,233.70
2023-04-15T00:45:25.902Z,235.44
2023-04-15T00:46:25.970Z,235.45
2023-04-15T00:47:26.120Z,235.44
2023-04-15T00:48:26.088Z,234.50
2023-04-15T00:49:26.131Z,235.46
2023-04-15T00:50:26.179Z,236.49
2023-04-15T00:51:26.244Z,235.93
2023-04-15T00:52:26.301Z,233.90
2023-04-15T00:53:26.299Z,233.98
2023-04-15T00:54:26.284Z,234.29
2023-04-15T00:55:26.268Z,234.64
2023-04-15T00:56:26.269Z,234.74
2023-04-15T00:57:26.268Z,235.37
2023-04-15T00:58:26.270Z,236.54
2023-04-15T00:59:26.258Z,234.51
2023-04-15T01:00:26.243Z,233.79
2023-04-15T01:01:26.261Z,234.76
2023-04-15T01:02:26.409Z,235.83
2023-04-15T01:03:26.572Z,234.04
2023-04-15T01:04:26.448Z,235.91
2023-04-15T01:05:26.422Z,234.31
2023-04-15T01:06:26.476Z,235.11
2023-04-15T01:07:26.544Z,234.81
2023-04-15T01:08:26.600Z,234.27
2023-04-15T01:09:26.657Z,233.52
2023-04-15T01:10:26.713Z,234.79
2023-04-15T01:11:26.782Z,234.29
2023-04-15T01:12:26.847Z,234.61
2023-04-15T01:13:26.904Z,235.72
2023-04-15T01:14:26.957Z,234.57
2023-04-15T01:15:27.014Z,234.01
2023-04-15T01:16:27.123Z,233.38
2023-04-15T01:17:27.193Z,234.93
2023-04-15T01:18:27.207Z,234.23
2023-04-15T01:19:27.255Z,234.73
2023-04-15T01:20:27.312Z,234.70
2023-04-15T01:21:27.385Z,233.74
2023-04-15T01:22:27.427Z,233.03
2023-04-15T01:23:27.493Z,235.36
2023-04-15T01:24:27.563Z,233.99
2023-04-15T01:25:27.624Z,234.85
2023-04-15T01:26:27.677Z,234.29
2023-04-15T01:27:27.744Z,235.02
2023-04-15T01:28:27.806Z,233.32
2023-04-15T01:29:27.880Z,234.95
2023-04-15T01:30:27.975Z,234.10
2023-04-15T01:31:28.050Z,235.37
2023-04-15T01:32:28.083Z,232.66
2023-04-15T01:33:28.095Z,234.22
2023-04-15T01:34:28.159Z,233.35
2023-04-15T01:35:28.220Z,234.53
2023-04-15T01:36:28.307Z,234.37
2023-04-15T01:37:28.362Z,233.46
2023-04-15T01:38:28.427Z,233.72
2023-04-15T01:39:28.481Z,233.61
2023-04-15T01:40:28.532Z,234.34
2023-04-15T01:41:28.589Z,233.58
2023-04-15T01:42:28.653Z,234.54
2023-04-15T01:43:28.719Z,233.93
2023-04-15T01:44:28.780Z,232.08
2023-04-15T01:45:28.843Z,233.14
2023-04-15T01:46:28.926Z,233.49
2023-04-15T01:47:28.973Z,233.48
2023-04-15T01:48:29.025Z,232.72
2023-04-15T01:49:29.072Z,233.86
2023-04-15T01:50:29.116Z,233.72
2023-04-15T01:51:29.177Z,232.97
2023-04-15T01:52:29.237Z,233.65
2023-04-15T01:53:29.292Z,233.46
2023-04-15T01:54:29.346Z,233.07
2023-04-15T01:55:29.416Z,233.48
2023-04-15T01:56:29.473Z,233.14
2023-04-15T01:57:29.533Z,232.97
2023-04-15T01:58:29.591Z,232.03
2023-04-15T01:59:29.673Z,232.75
2023-04-15T02:01:49.228Z,25.00
2023-04-15T02:02:49.238Z,25.00
2023-04-15T02:03:49.473Z,25.00
2023-04-15T02:04:49.241Z,25.00
2023-04-15T02:05:49.218Z,25.00
2023-04-15T02:06:49.222Z,25.00
2023-04-15T02:07:49.244Z,25.49
2023-04-15T02:08:49.256Z,29.85
2023-04-15T02:09:49.269Z,28.29
2023-04-15T02:10:49.258Z,27.14
2023-04-15T02:11:49.311Z,27.57
2023-04-15T02:12:49.305Z,28.64
2023-04-15T02:13:49.298Z,29.46
2023-04-15T02:14:49.301Z,25.96
2023-04-15T02:15:49.309Z,27.32
2023-04-15T02:16:49.451Z,25.28
2023-04-15T02:17:49.426Z,28.92
2023-04-15T02:18:49.346Z,29.19
2023-04-15T02:19:49.354Z,28.92
2023-04-15T02:20:49.381Z,29.85
2023-04-15T02:21:49.379Z,26.80
2023-04-15T02:22:49.417Z,26.27
2023-04-15T02:23:49.413Z,25.81
2023-04-15T02:24:49.429Z,26.76
2023-04-15T02:25:53.329Z,26.90
2023-04-15T02:26:49.478Z,27.22
2023-04-15T02:27:49.505Z,27.16
2023-04-15T02:28:49.497Z,27.68
2023-04-15T02:29:49.538Z,26.87
2023-04-15T02:30:49.528Z,27.92
2023-04-15T02:31:49.598Z,27.24
2023-04-15T02:32:49.585Z,26.65
2023-04-15T02:33:49.596Z,29.20
2023-04-15T02:34:49.609Z,27.45
2023-04-15T02:35:49.623Z,27.21
2023-04-15T02:36:49.627Z,28.57
2023-04-15T02:37:49.667Z,27.93
2023-04-15T02:38:49.665Z,28.25
2023-04-15T02:39:49.724Z,27.44
2023-04-15T02:40:49.818Z,29.52
2023-04-15T02:41:49.843Z,27.95
2023-04-15T02:42:49.916Z,29.85
2023-04-15T02:43:49.991Z,32.60
2023-04-15T02:44:50.047Z,29.44
2023-04-15T02:45:50.113Z,32.59
2023-04-15T02:46:50.172Z,28.74
2023-04-15T02:47:50.262Z,30.60
2023-04-15T02:48:50.311Z,30.09
2023-04-15T02:49:50.382Z,29.91
2023-04-15T02:50:50.453Z,31.51
2023-04-15T02:51:50.520Z,34.16
2023-04-15T02:52:50.590Z,26.27
2023-04-15T02:53:50.745Z,28.33
2023-04-15T02:54:50.728Z,26.47
2023-04-15T02:55:50.797Z,30.42
2023-04-15T02:56:50.883Z,29.29
2023-04-15T02:57:50.936Z,29.86
2023-04-15T02:58:51.006Z,31.12
2023-04-15T02:59:51.071Z,25.72
2023-04-15T03:00:51.118Z,26.69
2023-04-15T03:01:51.307Z,26.33
2023-04-15T03:02:51.355Z,25.00
2023-04-15T03:03:51.462Z,25.00
2023-04-15T03:04:51.397Z,25.00
2023-04-15T03:05:51.467Z,25.00
2023-04-15T03:06:51.540Z,25.00
2023-04-15T03:07:51.616Z,25.00
2023-04-15T03:08:51.704Z,25.00
2023-04-15T03:09:51.793Z,25.51
2023-04-15T03:10:51.856Z,26.19
2023-04-15T03:11:51.928Z,23.97
2023-04-15T03:12:52.016Z,27.64
2023-04-15T03:13:52.092Z,26.36
2023-04-15T03:14:52.163Z,24.75
2023-04-15T03:15:52.317Z,26.81
2023-04-15T03:16:52.291Z,25.00
2023-04-15T03:17:52.381Z,23.11
2023-04-15T03:18:52.374Z,25.51
2023-04-15T03:19:52.463Z,25.00
2023-04-15T03:20:52.477Z,27.24
2023-04-15T03:21:52.509Z,28.38
2023-04-15T03:22:52.510Z,25.00
2023-04-15T03:23:52.576Z,25.00
2023-04-15T03:24:52.660Z,25.50
2023-04-15T03:25:52.680Z,26.61
2023-04-15T03:26:52.703Z,25.19
2023-04-15T03:27:52.760Z,25.00
2023-04-15T03:28:52.806Z,25.92
2023-04-15T03:29:52.850Z,25.00
2023-04-15T03:30:52.902Z,25.00
2023-04-15T03:31:52.916Z,25.08
2023-04-15T03:32:52.999Z,25.00
2023-04-15T03:33:52.981Z,25.00
2023-04-15T03:34:53.042Z,25.00
2023-04-15T03:35:53.054Z,25.00
2023-04-15T03:36:53.074Z,25.57
2023-04-15T03:37:53.093Z,26.11
2023-04-15T03:38:53.130Z,25.24
2023-04-15T03:39:53.161Z,25.43
2023-04-15T03:40:53.166Z,25.43
2023-04-15T03:41:53.196Z,24.65
2023-04-15T03:42:53.198Z,21.37
2023-04-15T03:43:53.210Z,17.66
2023-04-15T03:44:53.232Z,14.64
2023-04-15T03:45:53.242Z,28.59
2023-04-15T03:46:53.352Z,25.35
2023-04-15T03:47:53.324Z,26.31
2023-04-15T03:48:53.282Z,25.12
2023-04-15T03:49:53.279Z,25.44
2023-04-15T03:50:53.335Z,26.76
2023-04-15T03:51:53.373Z,25.00
2023-04-15T03:52:53.323Z,25.78
2023-04-15T03:53:53.428Z,26.96
2023-04-15T03:54:53.458Z,25.32
2023-04-15T03:55:53.463Z,25.00
2023-04-15T03:56:53.497Z,25.30
2023-04-15T03:57:53.519Z,26.63
2023-04-15T03:58:53.499Z,25.00
2023-04-15T03:59:53.478Z,27.74
2023-04-15T04:00:53.499Z,25.00
2023-04-15T04:01:53.533Z,25.00
2023-04-15T04:02:53.704Z,25.00
2023-04-15T04:03:53.751Z,26.62
2023-04-15T04:04:53.608Z,26.41
2023-04-15T04:05:53.611Z,28.87
2023-04-15T04:06:53.618Z,27.54
2023-04-15T04:07:53.613Z,26.05
2023-04-15T04:08:53.626Z,25.00
2023-04-15T04:09:53.659Z,25.00
2023-04-15T04:10:53.694Z,25.13
2023-04-15T04:11:53.701Z,22.29
2023-04-15T04:12:53.708Z,24.60
2023-04-15T04:13:53.726Z,19.91
2023-04-15T04:14:53.760Z,17.80
2023-04-15T04:15:53.822Z,14.26
2023-04-15T04:16:53.841Z,12.39
2023-04-15T04:17:53.847Z,25.00
2023-04-15T04:18:53.843Z,25.06
2023-04-15T04:19:53.845Z,27.00
2023-04-15T04:20:53.877Z,25.61
2023-04-15T04:21:53.890Z,26.02
2023-04-15T04:22:53.910Z,26.74
2023-04-15T04:23:53.940Z,26.33
2023-04-15T04:24:53.950Z,26.80
2023-04-15T04:25:54.003Z,27.96
2023-04-15T04:26:53.997Z,25.95
2023-04-15T04:27:54.008Z,31.05
2023-04-15T04:28:54.023Z,25.34
2023-04-15T04:29:54.040Z,29.79
2023-04-15T04:30:54.058Z,27.45
2023-04-15T04:31:54.103Z,25.89
2023-04-15T04:32:54.127Z,28.89
2023-04-15T04:33:54.121Z,27.99
2023-04-15T04:34:54.115Z,23.57
2023-04-15T04:35:54.137Z,28.13
2023-04-15T04:36:54.188Z,28.83
2023-04-15T04:37:54.193Z,25.01
2023-04-15T04:38:54.210Z,26.24
2023-04-15T04:39:54.227Z,26.10
2023-04-15T04:40:54.249Z,25.07
2023-04-15T04:41:54.260Z,25.80
2023-04-15T04:42:54.300Z,27.26
2023-04-15T04:43:54.296Z,25.42
2023-04-15T04:44:54.360Z,31.61
2023-04-15T04:45:54.496Z,30.49
2023-04-15T04:46:54.464Z,25.00
2023-04-15T04:47:54.610Z,33.90
2023-04-15T04:48:54.604Z,34.30
2023-04-15T04:49:54.665Z,32.38
2023-04-15T04:50:54.733Z,33.54
2023-04-15T04:51:54.791Z,32.54
2023-04-15T04:52:54.858Z,31.84
2023-04-15T04:53:54.919Z,31.08
2023-04-15T04:54:54.985Z,31.17
2023-04-15T04:55:55.058Z,29.21
2023-04-15T04:56:55.104Z,27.35
2023-04-15T04:57:55.176Z,25.95
2023-04-15T04:58:55.235Z,25.00
2023-04-15T04:59:55.305Z,25.25
2023-04-15T05:00:55.437Z,25.79
2023-04-15T05:01:55.531Z,25.89
2023-04-15T05:02:55.731Z,29.64
2023-04-15T05:03:55.694Z,27.37
2023-04-15T05:04:55.680Z,28.98
2023-04-15T05:05:55.762Z,26.90
2023-04-15T05:06:55.824Z,29.23
2023-04-15T05:07:55.900Z,28.43
2023-04-15T05:08:55.963Z,28.07
2023-04-15T05:09:56.065Z,31.04
2023-04-15T05:10:56.137Z,28.32
2023-04-15T05:11:56.212Z,27.40
2023-04-15T05:12:56.277Z,26.69
2023-04-15T05:13:56.345Z,28.97
2023-04-15T05:14:56.428Z,30.39
2023-04-15T05:15:56.507Z,32.70
2023-04-15T05:16:56.558Z,35.85
2023-04-15T05:17:56.694Z,38.71
2023-04-15T05:18:56.705Z,38.09
2023-04-15T05:19:56.778Z,42.60
2023-04-15T05:20:56.875Z,43.62
2023-04-15T05:21:56.949Z,43.70
2023-04-15T05:22:57.024Z,44.62
2023-04-15T05:23:57.115Z,45.11
2023-04-15T05:24:57.190Z,44.84
2023-04-15T05:25:57.266Z,47.95
2023-04-15T05:26:57.325Z,48.80
2023-04-15T05:27:57.389Z,50.33
2023-04-15T05:28:57.482Z,50.83
2023-04-15T05:29:57.540Z,54.98
2023-04-15T05:30:57.650Z,54.77
2023-04-15T05:31:57.708Z,57.44
2023-04-15T05:32:57.807Z,56.34
2023-04-15T05:33:57.851Z,59.59
2023-04-15T05:34:57.916Z,62.16
2023-04-15T05:35:58.002Z,62.50
2023-04-15T05:36:58.061Z,65.03
2023-04-15T05:37:58.138Z,64.44
2023-04-15T05:38:58.205Z,67.50
2023-04-15T05:39:58.285Z,64.57
2023-04-15T05:40:58.352Z,62.96
2023-04-15T05:41:58.425Z,61.17
2023-04-15T05:42:58.506Z,59.75
2023-04-15T05:43:58.580Z,60.24
2023-04-15T05:44:58.662Z,56.26
2023-04-15T05:45:58.752Z,55.38
2023-04-15T05:46:58.816Z,53.87
2023-04-15T05:47:58.921Z,46.92
2023-04-15T05:48:59.048Z,47.80
2023-04-15T05:49:59.076Z,45.03
2023-04-15T05:50:59.140Z,41.90
2023-04-15T05:51:59.239Z,41.03
2023-04-15T05:52:59.313Z,44.38
2023-04-15T05:53:59.385Z,44.26
2023-04-15T05:54:59.477Z,41.46
2023-04-15T05:55:59.553Z,41.96
2023-04-15T05:56:59.667Z,41.79
2023-04-15T05:57:59.728Z,38.05
2023-04-15T05:59:00.153Z,37.97
2023-04-15T05:59:59.907Z,39.42
2023-04-15T06:00:59.978Z,38.94
2023-04-15T06:02:00.081Z,38.73
2023-04-15T06:03:00.333Z,32.78
2023-04-15T06:04:00.264Z,33.93
2023-04-15T06:05:00.480Z,35.79
2023-04-15T06:06:00.390Z,38.65
2023-04-15T06:07:00.474Z,34.08
2023-04-15T06:08:00.578Z,38.12
2023-04-15T06:09:00.844Z,39.46
2023-04-15T06:10:00.732Z,37.77
2023-04-15T06:11:00.803Z,33.75
2023-04-15T06:12:00.896Z,36.30
2023-04-15T06:13:00.978Z,36.76
2023-04-15T06:14:01.056Z,34.05
2023-04-15T06:15:01.150Z,38.22
2023-04-15T06:16:01.287Z,35.80
2023-04-15T06:17:01.314Z,30.71
2023-04-15T06:18:01.433Z,30.94
2023-04-15T06:19:01.613Z,28.85
2023-04-15T06:20:01.534Z,27.61
2023-04-15T06:21:01.702Z,29.52
2023-04-15T06:22:01.717Z,27.94
2023-04-15T06:23:01.871Z,28.27
2023-04-15T06:24:01.859Z,28.60
2023-04-15T06:25:01.927Z,26.41
2023-04-15T06:26:02.020Z,27.13
2023-04-15T06:27:02.098Z,29.43
2023-04-15T06:28:02.168Z,27.03
2023-04-15T06:29:02.468Z,25.00
2023-04-15T06:30:02.335Z,28.33
2023-04-15T06:31:02.421Z,26.80
2023-04-15T06:32:02.492Z,29.87
2023-04-15T06:33:02.610Z,29.17
2023-04-15T06:34:02.664Z,28.16
2023-04-15T06:35:02.740Z,28.40
2023-04-15T06:36:02.818Z,25.00
2023-04-15T06:37:05.130Z,25.14
2023-04-15T06:38:02.952Z,25.68
2023-04-15T06:39:03.168Z,26.16
2023-04-15T06:40:02.982Z,26.21
2023-04-15T06:41:02.990Z,25.00
2023-04-15T06:42:03.033Z,26.45
2023-04-15T06:43:03.046Z,25.00
2023-04-15T06:44:03.091Z,24.92
2023-04-15T06:45:03.148Z,26.85
2023-04-15T06:46:03.191Z,31.26
2023-04-15T06:47:03.188Z,27.04
2023-04-15T06:48:03.190Z,29.21
2023-04-15T06:49:03.381Z,25.00
2023-04-15T06:50:03.254Z,26.26
2023-04-15T06:51:03.267Z,25.97
2023-04-15T06:52:03.300Z,29.11
2023-04-15T06:53:03.316Z,31.22
2023-04-15T06:54:03.347Z,25.25
2023-04-15T06:55:03.351Z,28.32
2023-04-15T06:56:03.375Z,26.97
2023-04-15T06:57:03.432Z,26.98
2023-04-15T06:58:03.455Z,25.40
2023-04-15T06:59:03.508Z,26.96
2023-04-15T07:00:03.481Z,25.00
2023-04-15T07:01:03.604Z,26.51
2023-04-15T07:02:03.560Z,25.53
2023-04-15T07:03:03.624Z,26.69
2023-04-15T07:04:03.615Z,26.31
2023-04-15T07:05:03.590Z,28.10
2023-04-15T07:06:03.622Z,28.04
2023-04-15T07:07:03.666Z,26.54
2023-04-15T07:08:03.660Z,24.78
2023-04-15T07:09:04.013Z,26.38
2023-04-15T07:10:03.714Z,25.00
2023-04-15T07:11:03.743Z,28.62
2023-04-15T07:12:03.774Z,26.08
2023-04-15T07:13:03.797Z,25.00
2023-04-15T07:14:03.824Z,25.00
2023-04-15T07:15:03.854Z,26.89
2023-04-15T07:16:03.883Z,25.20
2023-04-15T07:17:03.987Z,25.21
2023-04-15T07:18:04.112Z,25.14
2023-04-15T07:19:04.336Z,25.00
2023-04-15T07:20:04.141Z,26.54
2023-04-15T07:21:04.223Z,24.34
2023-04-15T07:22:04.336Z,25.00
2023-04-15T07:23:04.381Z,28.40
2023-04-15T07:24:04.434Z,25.00
2023-04-15T07:25:04.502Z,24.88
2023-04-15T07:26:04.579Z,25.00
2023-04-15T07:27:04.649Z,25.87
2023-04-15T07:28:04.716Z,25.00
2023-04-15T07:29:04.789Z,25.00
2023-04-15T07:30:04.883Z,25.00
2023-04-15T07:31:04.948Z,28.64
2023-04-15T07:32:05.000Z,25.64
2023-04-15T07:33:05.101Z,30.88
2023-04-15T07:34:05.169Z,28.94
2023-04-15T07:35:05.178Z,33.35
2023-04-15T07:36:05.250Z,35.47
2023-04-15T07:37:05.316Z,29.49
2023-04-15T07:38:05.381Z,29.34
2023-04-15T07:39:05.428Z,25.00
2023-04-15T07:40:05.526Z,30.58
2023-04-15T07:41:05.549Z,30.06
2023-04-15T07:42:05.610Z,29.03
2023-04-15T07:43:05.686Z,34.86
2023-04-15T07:44:05.739Z,38.32
2023-04-15T07:45:05.789Z,25.00
2023-04-15T07:46:05.930Z,26.70
2023-04-15T07:47:05.930Z,29.94
2023-04-15T07:48:05.982Z,27.79
2023-04-15T07:49:06.049Z,36.47
2023-04-15T07:50:06.098Z,37.09
2023-04-15T07:51:06.158Z,39.58
2023-04-15T07:52:06.226Z,41.41
2023-04-15T07:53:06.302Z,45.67
2023-04-15T07:54:06.364Z,32.86
2023-04-15T07:55:06.432Z,32.63
2023-04-15T07:56:06.489Z,27.41
2023-04-15T07:57:06.633Z,26.32
2023-04-15T07:58:06.624Z,27.39
2023-04-15T07:59:06.721Z,25.00
2023-04-15T08:00:06.767Z,25.00
2023-04-15T08:01:06.817Z,25.00
2023-04-15T08:02:06.947Z,29.37
2023-04-15T08:03:07.197Z,32.94
2023-04-15T08:04:07.187Z,25.40
2023-04-15T08:05:07.074Z,27.96
2023-04-15T08:06:07.095Z,37.31
2023-04-15T08:07:07.171Z,25.00
2023-04-15T08:08:07.216Z,27.66
2023-04-15T08:09:07.277Z,25.00
2023-04-15T08:10:07.308Z,34.38
2023-04-15T08:11:07.376Z,33.06
2023-04-15T08:12:07.432Z,38.83
2023-04-15T08:13:07.515Z,38.82
2023-04-15T08:14:07.552Z,37.74
2023-04-15T08:15:07.621Z,35.37
2023-04-15T08:16:07.749Z,25.22
2023-04-15T08:17:07.713Z,29.44
2023-04-15T08:18:07.766Z,25.00
2023-04-15T08:19:07.825Z,25.24
2023-04-15T08:20:07.870Z,29.52
2023-04-15T08:21:07.909Z,25.75
2023-04-15T08:22:10.445Z,25.15
2023-04-15T08:23:08.986Z,24.27
2023-04-15T08:24:07.993Z,23.15
2023-04-15T08:25:08.016Z,22.02
2023-04-15T08:26:08.017Z,22.99
2023-04-15T08:27:08.075Z,21.91
2023-04-15T08:28:08.067Z,25.45
2023-04-15T08:29:08.073Z,27.86
2023-04-15T08:30:08.102Z,26.50
2023-04-15T08:32:08.133Z,27.68
2023-04-15T08:33:08.151Z,37.21
2023-04-15T08:34:08.168Z,33.48
2023-04-15T08:35:08.182Z,32.26
2023-04-15T08:36:08.201Z,35.02
2023-04-15T08:37:08.223Z,32.95
2023-04-15T08:38:08.241Z,25.00
2023-04-15T08:39:08.261Z,33.03
2023-04-15T08:40:08.299Z,44.91
2023-04-15T08:41:08.315Z,28.86
2023-04-15T08:42:08.350Z,33.71
2023-04-15T08:43:08.413Z,39.79
2023-04-15T08:44:08.428Z,27.54
2023-04-15T08:45:08.472Z,32.65
2023-04-15T08:46:08.522Z,33.86
2023-04-15T08:47:08.703Z,42.54
2023-04-15T08:48:08.596Z,43.17
2023-04-15T08:49:08.639Z,35.94
2023-04-15T08:50:08.667Z,35.62
2023-04-15T08:51:08.717Z,31.89
2023-04-15T08:52:08.744Z,33.55
2023-04-15T08:53:08.783Z,41.34
2023-04-15T08:54:08.814Z,42.86
2023-04-15T08:55:08.853Z,44.21
2023-04-15T08:56:08.893Z,50.77
2023-04-15T08:57:08.957Z,55.18
2023-04-15T08:58:08.979Z,47.01
2023-04-15T08:59:09.016Z,55.57
2023-04-15T09:00:09.064Z,52.67
2023-04-15T09:01:09.106Z,32.23
2023-04-15T09:02:09.188Z,42.77
2023-04-15T09:03:09.329Z,55.18
2023-04-15T09:04:09.359Z,74.38
2023-04-15T09:05:09.243Z,93.35
2023-04-15T09:06:09.304Z,99.48
2023-04-15T09:07:09.315Z,108.87
2023-04-15T09:08:09.406Z,123.71
2023-04-15T09:09:09.388Z,136.73
2023-04-15T09:10:09.433Z,153.03
2023-04-15T09:11:09.487Z,163.77
2023-04-15T09:12:09.517Z,177.89
2023-04-15T09:13:09.587Z,184.84
2023-04-15T09:14:09.614Z,202.21
2023-04-15T09:15:09.628Z,217.61
2023-04-15T09:16:09.677Z,233.14
2023-04-15T09:17:09.672Z,244.05
2023-04-15T09:18:09.720Z,248.09
2023-04-15T09:19:09.733Z,250.91
2023-04-15T09:20:09.750Z,250.00
2023-04-15T09:21:09.782Z,249.66
2023-04-15T09:22:09.810Z,250.92
2023-04-15T09:23:09.973Z,249.77
2023-04-15T09:24:09.847Z,250.17
2023-04-15T09:25:09.852Z,252.95
2023-04-15T09:26:09.883Z,259.26
2023-04-15T09:27:09.899Z,271.26
2023-04-15T09:28:09.924Z,291.83
2023-04-15T09:29:09.943Z,276.03
2023-04-15T09:30:10.007Z,257.88
2023-04-15T09:31:10.040Z,251.41
2023-04-15T09:32:10.027Z,249.82
2023-04-15T09:33:10.122Z,250.00
2023-04-15T09:34:10.191Z,251.65
2023-04-15T09:35:10.281Z,250.00
2023-04-15T09:36:10.361Z,248.54
2023-04-15T09:37:10.566Z,248.88
2023-04-15T09:38:10.520Z,249.24
2023-04-15T09:39:10.601Z,249.19
2023-04-15T09:40:10.691Z,249.76
2023-04-15T09:41:10.760Z,250.00
2023-04-15T09:42:10.846Z,248.34
2023-04-15T09:43:10.920Z,249.81
2023-04-15T09:44:10.987Z,249.13
2023-04-15T09:45:11.072Z,249.98
2023-04-15T09:46:11.213Z,249.57
2023-04-15T09:47:11.218Z,250.10
2023-04-15T09:48:11.298Z,250.00
2023-04-15T09:49:11.360Z,250.00
2023-04-15T09:50:11.429Z,249.91
2023-04-15T09:51:11.505Z,248.71
2023-04-15T09:52:11.570Z,248.61
2023-04-15T09:53:11.645Z,249.80
2023-04-15T09:54:11.714Z,249.42
2023-04-15T09:55:11.778Z,248.95
2023-04-15T09:56:11.832Z,248.30
2023-04-15T09:57:11.888Z,248.21
2023-04-15T09:58:11.950Z,249.77
2023-04-15T09:59:12.002Z,249.44
2023-04-15T10:00:12.065Z,249.68
2023-04-15T10:01:12.138Z,249.53
2023-04-15T10:02:12.163Z,249.63
2023-04-15T10:03:12.236Z,250.08
2023-04-15T10:04:12.250Z,251.11
2023-04-15T10:05:12.224Z,253.79
2023-04-15T10:06:12.228Z,256.51
2023-04-15T10:07:12.224Z,248.02
2023-04-15T10:08:12.212Z,249.61
2023-04-15T10:09:12.221Z,249.68
2023-04-15T10:10:12.234Z,248.36
2023-04-15T10:11:12.247Z,248.35
2023-04-15T10:12:12.274Z,249.34
2023-04-15T10:13:12.299Z,248.72
2023-04-15T10:14:12.291Z,248.59
2023-04-15T10:15:12.292Z,247.14
2023-04-15T10:16:12.381Z,248.71
2023-04-15T10:17:12.375Z,249.15
2023-04-15T10:18:12.417Z,249.97
2023-04-15T10:19:12.458Z,250.00
2023-04-15T10:20:12.508Z,250.00
2023-04-15T10:21:12.531Z,247.57
2023-04-15T10:22:12.574Z,249.28
2023-04-15T10:24:12.662Z,249.91
2023-04-15T10:25:12.733Z,247.87
2023-04-15T10:26:12.733Z,249.62
2023-04-15T10:27:12.761Z,248.80
2023-04-15T10:28:12.793Z,248.00
2023-04-15T10:29:12.829Z,250.00
2023-04-15T10:30:12.859Z,249.42
2023-04-15T10:31:12.984Z,249.08
2023-04-15T10:32:12.973Z,250.00
2023-04-15T10:33:13.005Z,250.00
2023-04-15T10:34:13.055Z,249.44
2023-04-15T10:35:13.056Z,248.61
2023-04-15T10:36:13.088Z,249.53
2023-04-15T10:37:13.123Z,248.70
2023-04-15T10:38:13.156Z,249.16
2023-04-15T10:39:13.193Z,249.85
2023-04-15T10:40:13.229Z,249.60
2023-04-15T10:41:13.328Z,248.66
2023-04-15T10:42:13.374Z,249.57
2023-04-15T10:43:13.376Z,249.67
2023-04-15T10:44:13.398Z,248.65
2023-04-15T10:45:13.400Z,248.73
2023-04-15T10:46:13.478Z,248.94
2023-04-15T10:47:13.422Z,249.44
2023-04-15T10:48:13.465Z,249.83
2023-04-15T10:49:13.456Z,250.81
2023-04-15T10:50:13.495Z,250.00
2023-04-15T10:51:13.448Z,248.82
2023-04-15T10:52:13.460Z,250.00
2023-04-15T10:53:13.459Z,248.90
2023-04-15T10:54:13.500Z,249.18
2023-04-15T10:55:13.491Z,249.60
2023-04-15T10:56:13.495Z,249.57
2023-04-15T10:57:13.495Z,249.07
2023-04-15T10:58:13.501Z,248.94
2023-04-15T10:59:13.504Z,249.39
2023-04-15T11:00:13.580Z,249.44
2023-04-15T11:01:13.508Z,249.57
2023-04-15T11:02:13.562Z,249.71
2023-04-15T11:03:13.590Z,250.18
2023-04-15T11:04:13.635Z,250.99
2023-04-15T11:05:13.534Z,248.41
2023-04-15T11:06:13.521Z,249.35
2023-04-15T11:07:13.538Z,249.47
2023-04-15T11:08:13.542Z,248.33
2023-04-15T11:09:13.545Z,249.01
2023-04-15T11:10:13.546Z,248.37
2023-04-15T11:11:13.545Z,249.74
2023-04-15T11:12:13.554Z,248.95
2023-04-15T11:13:13.720Z,249.21
2023-04-15T11:14:13.572Z,248.47
2023-04-15T11:15:13.579Z,248.38
2023-04-15T11:16:13.585Z,249.37
2023-04-15T11:17:13.573Z,248.24
2023-04-15T11:18:13.599Z,249.60
2023-04-15T11:19:13.588Z,248.46
2023-04-15T11:20:13.606Z,249.29
2023-04-15T11:21:13.605Z,248.55
2023-04-15T11:22:13.602Z,249.13
2023-04-15T11:23:14.640Z,248.60
2023-04-15T11:24:13.599Z,248.29
2023-04-15T11:25:13.607Z,248.23
2023-04-15T11:26:13.646Z,249.15
2023-04-15T11:27:13.623Z,247.68
2023-04-15T11:28:13.645Z,249.90
2023-04-15T11:29:13.689Z,248.41
2023-04-15T11:30:13.694Z,248.23
2023-04-15T11:31:13.757Z,249.37
2023-04-15T11:32:13.904Z,249.02
2023-04-15T11:33:13.795Z,248.71
2023-04-15T11:34:13.816Z,249.39
2023-04-15T11:35:13.838Z,248.90
2023-04-15T11:36:13.869Z,248.46
2023-04-15T11:37:13.923Z,248.92
2023-04-15T11:38:14.244Z,248.48
2023-04-15T11:39:13.987Z,249.15
2023-04-15T11:40:14.039Z,248.72
2023-04-15T11:41:14.047Z,247.95
2023-04-15T11:42:14.117Z,248.86
2023-04-15T11:43:14.121Z,249.63
2023-04-15T11:44:14.157Z,248.85
2023-04-15T11:45:14.203Z,247.33
2023-04-15T11:46:14.268Z,248.85
2023-04-15T11:47:14.260Z,249.17
2023-04-15T11:48:14.259Z,248.32
2023-04-15T11:49:14.262Z,248.43
2023-04-15T11:50:14.305Z,247.79
2023-04-15T11:51:14.323Z,248.83
2023-04-15T11:52:14.375Z,248.85
2023-04-15T11:53:14.373Z,249.35
2023-04-15T11:54:14.396Z,247.93
2023-04-15T11:55:14.477Z,248.72
2023-04-15T11:56:14.544Z,250.00
2023-04-15T11:57:14.565Z,248.91
2023-04-15T11:58:16.354Z,248.33
2023-04-15T11:59:14.590Z,249.75
2023-04-15T12:00:14.661Z,248.42
2023-04-15T12:01:14.680Z,249.54
2023-04-15T12:02:14.945Z,249.33
2023-04-15T12:03:15.119Z,248.44
2023-04-15T12:04:14.928Z,248.66
2023-04-15T12:05:14.884Z,248.89
2023-04-15T12:06:14.845Z,249.09
2023-04-15T12:07:14.909Z,248.62
2023-04-15T12:08:14.974Z,248.95
2023-04-15T12:09:15.011Z,249.29
2023-04-15T12:10:15.045Z,249.12
2023-04-15T12:11:15.104Z,248.86
2023-04-15T12:12:15.145Z,249.84
2023-04-15T12:13:15.182Z,248.30
2023-04-15T12:14:15.226Z,248.42
2023-04-15T12:15:15.292Z,249.28
2023-04-15T12:16:15.396Z,248.98
2023-04-15T12:17:15.392Z,248.06
2023-04-15T12:18:15.444Z,248.27
2023-04-15T12:19:15.504Z,249.40
2023-04-15T12:20:15.580Z,248.98
2023-04-15T12:21:15.649Z,249.04
2023-04-15T12:22:15.749Z,248.45
2023-04-15T12:23:15.790Z,248.19
2023-04-15T12:24:15.848Z,248.56
2023-04-15T12:25:15.932Z,248.16
2023-04-15T12:26:15.997Z,249.11
2023-04-15T12:27:16.092Z,247.80
2023-04-15T12:28:16.160Z,250.00
2023-04-15T12:29:16.238Z,248.41
2023-04-15T12:30:16.283Z,248.43
2023-04-15T12:31:16.347Z,249.26
2023-04-15T12:32:16.408Z,248.98
2023-04-15T12:33:16.480Z,248.28
2023-04-15T12:34:16.551Z,247.99
2023-04-15T12:35:16.622Z,248.59
2023-04-15T12:36:16.676Z,249.00
2023-04-15T12:37:16.735Z,247.63
2023-04-15T12:38:16.779Z,247.94
2023-04-15T12:39:16.830Z,249.55
2023-04-15T12:40:16.932Z,248.92
2023-04-15T12:41:16.957Z,248.69
2023-04-15T12:42:17.030Z,248.94
2023-04-15T12:43:17.081Z,248.87
2023-04-15T12:44:17.147Z,249.01
2023-04-15T12:45:17.222Z,248.70